Time;durP1;ratioP1;P1;durP2;ratioP2;P2;SDS_P1;SDS_P2;PMS_P1;PMS_P2;Temp;Humidity;BMP_temperature;BMP_pressure;BME280_temperature;BME280_humidity;BME280_pressure;Samples;Min_cycle;Max_cycle;Signal;HPM_P1;HPM_P2
2022/12/17 13:06:42;;;;;;;;;;;;;;;-0.42;100.00;100083.97;5020066;28;19971;-43
2022/12/17 13:09:13;;;;;;;;;;;;;;;-0.32;100.00;100080.06;5035025;28;20012;-43
2022/12/17 13:11:39;;;;;;;;;;;;;;;-0.19;100.00;100076.19;5022385;28;19988;-43
2022/12/17 13:14:06;;;;;;;;;;;;;;;-0.95;100.00;100068.03;5022229;28;20007;-43
2022/12/17 13:16:47;;;;;;;;;;;;;;;-0.48;100.00;100078.75;5021221;28;19916;-43
2022/12/17 13:19:16;;;;;;;;;;;;;;;-1.31;100.00;100071.09;5020682;28;19921;-43
2022/12/17 13:21:41;;;;;;;;;;;;;;;-1.86;100.00;100084.38;5022373;28;19960;-43
2022/12/17 13:24:33;;;;;;;;;;;;;;;-2.23;100.00;100085.56;5019253;28;20050;-43
2022/12/17 13:26:58;;;;;;;;;;;;;;;-1.89;100.00;100117.09;5019078;28;20688;-43
2022/12/17 13:29:28;;;;;;;;;;;;;;;-1.92;100.00;100115.28;5020541;28;19944;-43
2022/12/17 13:31:53;;;;;;;;;;;;;;;-1.65;100.00;100128.84;5022351;28;20417;-43
2022/12/17 13:34:27;;;;;;;;;;;;;;;-1.45;100.00;100148.09;5021833;28;20008;-43
2022/12/17 13:36:53;;;;;;;;;;;;;;;-1.94;100.00;100137.13;5020827;28;19928;-43
2022/12/17 13:39:24;;;;;;;;;;;;;;;-1.55;100.00;100153.63;5021108;28;19924;-43
2022/12/17 13:41:52;;;;;;;;;;;;;;;-1.69;100.00;100148.06;5022150;28;19917;-43
2022/12/17 13:44:17;;;;;;;;;;;;;;;-1.48;100.00;100150.53;5021435;28;19927;-43
2022/12/17 13:46:43;;;;;;;;;;;;;;;-1.73;100.00;100144.59;5020866;28;19917;-43
2022/12/17 13:49:22;;;;;;;;;;;;;;;-1.54;100.00;100151.16;5020780;28;19917;-43
2022/12/17 13:51:47;;;;;;;;;;;;;;;-2.11;100.00;100139.00;5019159;28;19924;-43
2022/12/17 13:54:17;;;;;;;;;;;;;;;-2.00;100.00;100151.19;5018486;28;19917;-43
2022/12/17 13:56:42;;;;;;;;;;;;;;;-1.86;100.00;100154.22;5020222;28;20036;-43
2022/12/17 13:59:14;;;;;;;;;;;;;;;-1.53;100.00;100159.59;5019892;28;20375;-43
2022/12/17 14:01:46;;;;;;;;;;;;;;;-1.51;100.00;100157.97;5018792;28;19921;-43
2022/12/17 14:04:18;;;;;;;;;;;;;;;-1.10;100.00;100172.03;5020511;28;20003;-43
2022/12/17 14:06:43;;;;;;;;;;;;;;;-0.99;100.00;100169.88;5018928;28;21309;-43
2022/12/17 14:09:12;;;;;;;;;;;;;;;-1.29;100.00;100159.59;5018638;28;19925;-43
2022/12/17 14:14:24;;;;;;;;;;;;;;;-2.15;100.00;100142.22;5020755;28;20401;-43
2022/12/17 14:16:49;;;;;;;;;;;;;;;-1.84;100.00;100152.59;5020039;28;19944;-43
2022/12/17 14:19:14;;;;;;;;;;;;;;;-1.43;100.00;100159.13;5020075;28;19921;-43
2022/12/17 14:21:40;;;;;;;;;;;;;;;-1.80;100.00;100160.34;5019876;28;20370;-43
2022/12/17 14:24:05;;;;;;;;;;;;;;;-1.51;100.00;100160.50;5021960;28;20597;-43
2022/12/17 14:26:30;;;;;;;;;;;;;;;-1.23;100.00;100169.91;5020145;28;19917;-43
2022/12/17 14:28:56;;;;;;;;;;;;;;;-1.07;100.00;100163.72;5017713;28;19967;-43
2022/12/17 14:31:21;;;;;;;;;;;;;;;-1.11;100.00;100161.88;5012764;28;20491;-43
2022/12/17 14:33:46;;;;;;;;;;;;;;;-1.13;100.00;100155.91;5019385;28;20031;-43
2022/12/17 14:36:15;;;;;;;;;;;;;;;-1.20;100.00;100143.88;5018787;28;19967;-43
2022/12/17 14:38:48;;;;;;;;;;;;;;;-1.09;100.00;100137.53;5018325;28;19917;-43
2022/12/17 14:43:58;;;;;;;;;;;;;;;-1.37;100.00;100130.66;5019211;28;19932;-43
2022/12/17 14:46:24;;;;;;;;;;;;;;;-1.62;100.00;100127.31;5018915;28;19917;-43
2022/12/17 14:49:01;;;;;;;;;;;;;;;-1.91;100.00;100123.75;5020176;28;19917;-43
2022/12/17 14:51:27;;;;;;;;;;;;;;;-2.15;100.00;100116.13;5020226;28;19936;-43
2022/12/17 14:54:03;;;;;;;;;;;;;;;-1.61;100.00;100128.16;5019219;28;19924;-43
2022/12/17 14:56:28;;;;;;;;;;;;;;;-1.29;100.00;100141.91;5020930;28;19924;-43
2022/12/17 14:58:54;;;;;;;;;;;;;;;-1.25;100.00;100136.16;5020461;28;19974;-43
2022/12/17 15:01:19;;;;;;;;;;;;;;;-1.79;100.00;100124.16;5021261;28;19917;-43
2022/12/17 15:03:45;;;;;;;;;;;;;;;-2.26;100.00;100122.44;5009279;28;19921;-43
2022/12/17 15:06:11;;;;;;;;;;;;;;;-2.69;100.00;100116.63;5022805;28;20456;-43
2022/12/17 15:08:45;;;;;;;;;;;;;;;-2.31;100.00;100129.81;5020958;28;20285;-43
2022/12/17 15:11:11;;;;;;;;;;;;;;;-1.85;100.00;100151.72;5023426;28;20375;-43
2022/12/17 15:13:36;;;;;;;;;;;;;;;-1.46;100.00;100153.94;5024074;28;20016;-43
2022/12/17 15:16:01;;;;;;;;;;;;;;;-1.42;100.00;100152.38;5023968;28;19946;-43
2022/12/17 15:18:27;;;;;;;;;;;;;;;-1.33;100.00;100138.41;5022879;28;20798;-43
2022/12/17 15:20:52;;;;;;;;;;;;;;;-1.31;100.00;100133.41;5024570;28;19917;-43
2022/12/17 15:23:18;;;;;;;;;;;;;;;-1.33;100.00;100115.66;5023993;28;20390;-43
2022/12/17 15:25:44;;;;;;;;;;;;;;;-1.51;100.00;100108.31;5024626;28;20317;-43
2022/12/17 15:28:09;;;;;;;;;;;;;;;-1.65;100.00;100101.94;5023722;28;19917;-43
2022/12/17 15:30:34;;;;;;;;;;;;;;;-1.69;100.00;100103.50;5024094;28;20008;-43
2022/12/17 15:33:00;;;;;;;;;;;;;;;-1.55;100.00;100100.56;5023546;28;19931;-43
2022/12/17 15:35:25;;;;;;;;;;;;;;;-1.61;100.00;100095.31;5023939;28;19967;-43
2022/12/17 15:37:50;;;;;;;;;;;;;;;-1.52;100.00;100100.69;5023905;28;19923;-43
2022/12/17 15:40:15;;;;;;;;;;;;;;;-1.41;100.00;100104.44;5023708;28;19924;-43
2022/12/17 15:45:25;;;;;;;;;;;;;;;-1.61;100.00;100090.28;5024764;28;19931;-43
2022/12/17 15:47:50;;;;;;;;;;;;;;;-1.55;100.00;100096.41;5022719;28;19920;-43
2022/12/17 15:50:15;;;;;;;;;;;;;;;-1.45;100.00;100102.63;5024370;28;19920;-43
2022/12/17 15:52:40;;;;;;;;;;;;;;;-1.31;100.00;100091.28;5039402;28;20322;-43
2022/12/17 15:55:06;;;;;;;;;;;;;;;-1.61;100.00;100100.38;5023497;28;20351;-43
2022/12/17 15:57:31;;;;;;;;;;;;;;;-1.67;100.00;100100.16;5024405;28;19921;-43
2022/12/17 15:59:56;;;;;;;;;;;;;;;-1.62;100.00;100093.59;5023862;28;19913;-43
2022/12/17 16:02:21;;;;;;;;;;;;;;;-1.66;100.00;100096.84;5024407;28;20414;-43
2022/12/17 16:04:47;;;;;;;;;;;;;;;-1.61;100.00;100092.81;5024440;28;20361;-43
2022/12/17 16:07:12;;;;;;;;;;;;;;;-1.52;100.00;100096.50;5022529;28;19976;-44
2022/12/17 16:09:37;;;;;;;;;;;;;;;-1.55;100.00;100095.50;5023332;28;19931;-45
2022/12/17 16:12:02;;;;;;;;;;;;;;;-1.49;100.00;100101.63;5024083;28;19917;-44
2022/12/17 16:14:28;;;;;;;;;;;;;;;-1.49;100.00;100100.78;5023865;28;19917;-44
2022/12/17 16:16:53;;;;;;;;;;;;;;;-1.57;100.00;100107.25;5023405;28;19956;-44
2022/12/17 16:19:21;;;;;;;;;;;;;;;-1.56;100.00;100106.44;5023022;28;20807;-44
2022/12/17 16:21:46;;;;;;;;;;;;;;;-1.75;100.00;100108.31;5023322;28;19924;-44
2022/12/17 16:24:12;;;;;;;;;;;;;;;-1.56;100.00;100108.97;5022845;28;19921;-44
2022/12/17 16:26:37;;;;;;;;;;;;;;;-1.41;100.00;100118.75;5023012;28;20425;-43
2022/12/17 16:29:02;;;;;;;;;;;;;;;-1.41;100.00;100117.06;5021111;28;20777;-44
2022/12/17 16:31:27;;;;;;;;;;;;;;;-1.39;100.00;100125.56;5022056;28;20457;-44
2022/12/17 16:33:53;;;;;;;;;;;;;;;-1.23;100.00;100126.94;5022810;28;19917;-44
2022/12/17 16:36:18;;;;;;;;;;;;;;;-1.21;100.00;100124.44;5023610;28;19921;-44
2022/12/17 16:38:47;;;;;;;;;;;;;;;-1.36;100.00;100118.09;5022697;28;20107;-45
2022/12/17 16:41:13;;;;;;;;;;;;;;;-1.29;100.00;100109.06;5019630;28;20649;-43
2022/12/17 16:43:38;;;;;;;;;;;;;;;-1.47;100.00;100109.28;5022170;28;19927;-43
2022/12/17 16:46:04;;;;;;;;;;;;;;;-1.69;100.00;100121.19;5020715;28;19974;-43
2022/12/17 16:48:29;;;;;;;;;;;;;;;-1.57;100.00;100124.94;5021743;28;19917;-43
2022/12/17 16:50:54;;;;;;;;;;;;;;;-1.84;100.00;100125.69;5020817;28;20242;-43
2022/12/17 16:53:19;;;;;;;;;;;;;;;-1.56;100.00;100134.22;5022505;28;21032;-43
2022/12/17 16:55:45;;;;;;;;;;;;;;;-1.23;100.00;100144.66;5021286;28;20508;-43
2022/12/17 16:58:11;;;;;;;;;;;;;;;-1.71;100.00;100135.41;5021798;28;20719;-43
2022/12/17 17:00:36;;;;;;;;;;;;;;;-1.50;100.00;100135.31;5020218;28;20940;-43
2022/12/17 17:03:02;;;;;;;;;;;;;;;-1.55;100.00;100138.47;5021150;28;19924;-43
2022/12/17 17:05:30;;;;;;;;;;;;;;;-1.46;100.00;100138.78;5022960;28;19917;-43
2022/12/17 17:07:55;;;;;;;;;;;;;;;-1.60;100.00;100145.03;5022070;28;19960;-43
2022/12/17 17:10:20;;;;;;;;;;;;;;;-1.55;100.00;100143.50;5020994;28;19960;-43
2022/12/17 17:12:45;;;;;;;;;;;;;;;-1.40;100.00;100159.22;5023075;28;19917;-43
2022/12/17 17:15:10;;;;;;;;;;;;;;;-1.50;100.00;100158.03;5021522;28;19917;-43
2022/12/17 17:17:36;;;;;;;;;;;;;;;-1.63;100.00;100157.56;5022009;28;19979;-43
2022/12/17 17:20:01;;;;;;;;;;;;;;;-1.64;100.00;100165.91;5020916;28;19921;-43
2022/12/17 17:22:26;;;;;;;;;;;;;;;-1.34;100.00;100174.59;5021871;28;20803;-43
2022/12/17 17:24:51;;;;;;;;;;;;;;;-1.43;100.00;100176.81;5020584;28;19960;-43
2022/12/17 17:27:17;;;;;;;;;;;;;;;-1.80;100.00;100175.50;5021477;28;19967;-43
2022/12/17 17:29:42;;;;;;;;;;;;;;;-1.30;100.00;100181.47;5020252;28;20140;-43
2022/12/17 17:32:07;;;;;;;;;;;;;;;-1.30;100.00;100186.53;5020848;28;19913;-43
2022/12/17 17:34:35;;;;;;;;;;;;;;;-1.43;100.00;100189.44;5021145;28;19920;-43
2022/12/17 17:37:00;;;;;;;;;;;;;;;-1.56;100.00;100193.19;5021579;28;20405;-43
2022/12/17 17:39:26;;;;;;;;;;;;;;;-1.41;100.00;100205.50;5020072;28;19929;-43
2022/12/17 17:41:51;;;;;;;;;;;;;;;-1.65;100.00;100202.09;5022047;28;19917;-43
2022/12/17 17:44:16;;;;;;;;;;;;;;;-1.29;100.00;100210.97;5020649;28;19925;-43
2022/12/17 17:46:42;;;;;;;;;;;;;;;-1.66;100.00;100198.72;5021984;28;19917;-43
2022/12/17 17:49:07;;;;;;;;;;;;;;;-1.46;100.00;100201.94;5021122;28;20230;-43
2022/12/17 17:51:33;;;;;;;;;;;;;;;-1.40;100.00;100204.69;5021365;28;19917;-43
2022/12/17 17:53:59;;;;;;;;;;;;;;;-1.75;100.00;100200.91;5020929;28;19926;-43
2022/12/17 17:56:25;;;;;;;;;;;;;;;-1.62;100.00;100205.59;5020388;28;19929;-43
2022/12/17 17:58:52;;;;;;;;;;;;;;;-1.57;100.00;100208.31;5020503;28;19952;-43
2022/12/17 18:01:18;;;;;;;;;;;;;;;-1.30;100.00;100213.44;5020502;28;19920;-44
2022/12/17 18:03:44;;;;;;;;;;;;;;;-1.93;100.00;100198.56;5021120;28;19928;-43
2022/12/17 18:06:10;;;;;;;;;;;;;;;-1.36;100.00;100213.25;5021387;28;19921;-43
2022/12/17 18:08:35;;;;;;;;;;;;;;;-1.47;100.00;100210.34;5019122;28;20274;-43
2022/12/17 18:11:01;;;;;;;;;;;;;;;-1.63;100.00;100208.06;5021433;28;19917;-43
2022/12/17 18:16:10;;;;;;;;;;;;;;;-1.57;100.00;100218.41;5021048;28;19928;-43
2022/12/17 18:18:36;;;;;;;;;;;;;;;-1.49;100.00;100222.06;5020457;28;19921;-43
2022/12/17 18:21:05;;;;;;;;;;;;;;;-1.33;100.00;100224.31;5020466;28;19921;-43
2022/12/17 18:23:30;;;;;;;;;;;;;;;-1.79;100.00;100206.66;5020668;28;20274;-43
2022/12/17 18:25:55;;;;;;;;;;;;;;;-1.40;100.00;100217.31;5020684;28;19921;-43
2022/12/17 18:28:21;;;;;;;;;;;;;;;-1.27;100.00;100222.00;5020149;28;19918;-43
2022/12/17 18:30:46;;;;;;;;;;;;;;;-1.41;100.00;100213.09;5020294;28;19927;-43
2022/12/17 18:33:11;;;;;;;;;;;;;;;-1.63;100.00;100203.00;5019996;28;19917;-43
2022/12/17 18:35:36;;;;;;;;;;;;;;;-1.57;100.00;100203.25;5018026;28;19939;-43
2022/12/17 18:38:02;;;;;;;;;;;;;;;-1.81;100.00;100196.47;5018175;28;19921;-45
2022/12/17 18:40:27;;;;;;;;;;;;;;;-1.51;100.00;100198.38;5020439;28;21004;-45
2022/12/17 18:45:37;;;;;;;;;;;;;;;-1.54;100.00;100209.25;5024718;28;20392;-44
2022/12/17 18:48:03;;;;;;;;;;;;;;;-1.94;100.00;100209.44;5024685;28;19917;-44
2022/12/17 18:50:28;;;;;;;;;;;;;;;-1.62;100.00;100214.81;5024149;28;19917;-44
2022/12/17 18:52:53;;;;;;;;;;;;;;;-2.03;100.00;100202.41;5022850;28;19928;-43
2022/12/17 18:55:18;;;;;;;;;;;;;;;-1.92;100.00;100200.25;5024442;28;19917;-43
2022/12/17 18:57:43;;;;;;;;;;;;;;;-1.65;100.00;100214.72;5025147;28;19921;-43
2022/12/17 19:00:09;;;;;;;;;;;;;;;-1.91;100.00;100202.00;5024231;28;19921;-44
2022/12/17 19:02:34;;;;;;;;;;;;;;;-1.44;100.00;100225.59;5021640;28;20574;-43
2022/12/17 19:04:59;;;;;;;;;;;;;;;-1.62;100.00;100220.75;5024080;28;19921;-43
2022/12/17 19:07:25;;;;;;;;;;;;;;;-1.64;100.00;100217.31;5023911;28;19927;-43
2022/12/17 19:09:50;;;;;;;;;;;;;;;-1.48;100.00;100219.59;5023970;28;19917;-43
2022/12/17 19:12:15;;;;;;;;;;;;;;;-1.52;100.00;100212.69;5024821;28;20353;-43
2022/12/17 19:14:41;;;;;;;;;;;;;;;-1.66;100.00;100203.78;5022880;28;19917;-44
2022/12/17 19:17:06;;;;;;;;;;;;;;;-1.33;100.00;100214.19;5024002;28;20401;-43
2022/12/17 19:19:32;;;;;;;;;;;;;;;-1.38;100.00;100210.66;5024533;28;20023;-45
2022/12/17 19:21:59;;;;;;;;;;;;;;;-1.47;100.00;100210.34;5025087;28;20070;-43
2022/12/17 19:24:24;;;;;;;;;;;;;;;-1.44;100.00;100205.38;5025064;28;20314;-43
2022/12/17 19:26:50;;;;;;;;;;;;;;;-1.99;100.00;100203.38;5025210;28;19920;-43
2022/12/17 19:29:15;;;;;;;;;;;;;;;-1.51;100.00;100211.03;5024506;28;19917;-43
2022/12/17 19:31:41;;;;;;;;;;;;;;;-1.23;100.00;100210.34;5024821;28;19917;-43
2022/12/17 19:34:08;;;;;;;;;;;;;;;-1.47;100.00;100201.09;5025066;28;20011;-44
2022/12/17 19:36:33;;;;;;;;;;;;;;;-1.72;100.00;100198.47;5023012;28;19921;-44
2022/12/17 19:38:59;;;;;;;;;;;;;;;-1.50;100.00;100215.28;5024592;28;19920;-44
2022/12/17 19:41:26;;;;;;;;;;;;;;;-1.50;100.00;100205.19;5023720;28;20796;-44
2022/12/17 19:43:52;;;;;;;;;;;;;;;-1.89;100.00;100195.34;5024658;28;19933;-44
2022/12/17 19:46:18;;;;;;;;;;;;;;;-1.48;100.00;100204.44;5039423;28;19932;-44
2022/12/17 19:48:43;;;;;;;;;;;;;;;-1.72;100.00;100201.00;5024273;28;20287;-42
2022/12/17 19:51:09;;;;;;;;;;;;;;;-1.64;100.00;100202.16;5024609;28;19921;-42
2022/12/17 19:53:35;;;;;;;;;;;;;;;-1.50;100.00;100211.09;5023153;28;19932;-43
2022/12/17 19:56:12;;;;;;;;;;;;;;;-1.78;100.00;100206.72;5024512;28;19925;-43
2022/12/17 19:58:41;;;;;;;;;;;;;;;-1.70;100.00;100215.41;5022961;28;19947;-43
2022/12/17 20:01:07;;;;;;;;;;;;;;;-1.70;100.00;100212.88;5021509;28;19950;-43
2022/12/17 20:03:32;;;;;;;;;;;;;;;-1.70;100.00;100217.09;5023441;28;20454;-43
2022/12/17 20:05:57;;;;;;;;;;;;;;;-1.76;100.00;100209.28;5023407;28;20453;-43
2022/12/17 20:08:23;;;;;;;;;;;;;;;-1.62;100.00;100214.81;5022104;28;20525;-43
2022/12/17 20:10:48;;;;;;;;;;;;;;;-1.34;100.00;100221.75;5023114;28;20529;-43
2022/12/17 20:13:13;;;;;;;;;;;;;;;-1.63;100.00;100203.88;5023616;28;20275;-43
2022/12/17 20:15:38;;;;;;;;;;;;;;;-1.37;100.00;100217.44;5022384;28;19917;-43
2022/12/17 20:18:04;;;;;;;;;;;;;;;-1.88;100.00;100212.19;5023418;28;19921;-43
2022/12/17 20:20:29;;;;;;;;;;;;;;;-1.82;100.00;100216.63;5023592;28;20016;-43
2022/12/17 20:22:54;;;;;;;;;;;;;;;-1.43;100.00;100222.28;5023538;28;19921;-43
2022/12/17 20:25:19;;;;;;;;;;;;;;;-2.02;100.00;100195.69;5024003;28;19955;-43
2022/12/17 20:27:45;;;;;;;;;;;;;;;-1.78;100.00;100214.28;5023090;28;19917;-43
2022/12/17 20:30:10;;;;;;;;;;;;;;;-1.44;100.00;100230.66;5023176;28;19917;-43
2022/12/17 20:32:36;;;;;;;;;;;;;;;-1.74;100.00;100223.66;5023843;28;19939;-43
2022/12/17 20:35:01;;;;;;;;;;;;;;;-1.53;100.00;100231.19;5023873;28;19921;-43
2022/12/17 20:37:26;;;;;;;;;;;;;;;-1.76;100.00;100240.44;5023944;28;20016;-43
2022/12/17 20:39:52;;;;;;;;;;;;;;;-1.51;100.00;100248.91;5021373;28;19925;-43
2022/12/17 20:42:17;;;;;;;;;;;;;;;-1.65;100.00;100235.78;5023757;28;19917;-43
2022/12/17 20:44:42;;;;;;;;;;;;;;;-2.00;100.00;100227.75;5021704;28;19924;-43
2022/12/17 20:47:08;;;;;;;;;;;;;;;-1.51;100.00;100241.34;5024407;28;19913;-43
2022/12/17 20:49:33;;;;;;;;;;;;;;;-1.45;100.00;100233.13;5022146;28;19921;-43
2022/12/17 20:51:58;;;;;;;;;;;;;;;-1.47;100.00;100230.53;5023200;28;20004;-43
2022/12/17 20:54:23;;;;;;;;;;;;;;;-1.91;100.00;100227.25;5023815;28;19924;-43
2022/12/17 20:56:49;;;;;;;;;;;;;;;-1.62;100.00;100224.94;5023707;28;19917;-43
2022/12/17 20:59:15;;;;;;;;;;;;;;;-1.69;100.00;100224.72;5022879;28;19921;-43
2022/12/17 21:01:40;;;;;;;;;;;;;;;-1.75;100.00;100221.97;5022248;28;19927;-43
2022/12/17 21:04:06;;;;;;;;;;;;;;;-1.57;100.00;100228.50;5021513;28;19921;-43
2022/12/17 21:06:41;;;;;;;;;;;;;;;-1.51;100.00;100233.75;5021746;28;19921;-42
2022/12/17 21:09:07;;;;;;;;;;;;;;;-1.61;100.00;100226.66;5021671;28;19944;-43
2022/12/17 21:11:32;;;;;;;;;;;;;;;-1.77;100.00;100228.63;5022287;28;20475;-43
2022/12/17 21:13:58;;;;;;;;;;;;;;;-1.76;100.00;100232.00;5022223;28;20318;-43
2022/12/17 21:16:27;;;;;;;;;;;;;;;-1.61;100.00;100231.72;5021473;28;19925;-43
2022/12/17 21:18:53;;;;;;;;;;;;;;;-1.79;100.00;100232.75;5020909;28;19917;-43
2022/12/17 21:21:20;;;;;;;;;;;;;;;-1.63;100.00;100233.31;5022113;28;19971;-43
2022/12/17 21:23:46;;;;;;;;;;;;;;;-1.36;100.00;100239.38;5021243;28;19925;-43
2022/12/17 21:26:12;;;;;;;;;;;;;;;-1.73;100.00;100238.03;5021726;28;19917;-43
2022/12/17 21:28:38;;;;;;;;;;;;;;;-1.63;100.00;100238.38;5020721;28;19947;-43
2022/12/17 21:31:03;;;;;;;;;;;;;;;-1.94;100.00;100234.69;5021787;28;20540;-43
2022/12/17 21:33:28;;;;;;;;;;;;;;;-1.66;100.00;100233.22;5021362;28;20006;-43
2022/12/17 21:35:57;;;;;;;;;;;;;;;-1.62;100.00;100235.03;5021992;28;19986;-43
2022/12/17 21:38:23;;;;;;;;;;;;;;;-1.52;100.00;100232.06;5018971;28;19917;-43
2022/12/17 21:40:48;;;;;;;;;;;;;;;-1.86;100.00;100240.91;5020133;28;20432;-44
2022/12/17 21:43:13;;;;;;;;;;;;;;;-1.54;100.00;100247.16;5020765;28;19975;-43
2022/12/17 21:45:39;;;;;;;;;;;;;;;-1.55;100.00;100236.97;5021193;28;19924;-43
2022/12/17 21:48:05;;;;;;;;;;;;;;;-1.69;100.00;100234.81;5019406;28;19959;-43
2022/12/17 21:50:31;;;;;;;;;;;;;;;-1.77;100.00;100240.38;5020976;28;20363;-43
2022/12/17 21:52:56;;;;;;;;;;;;;;;-1.78;100.00;100238.66;5021402;28;19925;-43
2022/12/17 21:55:22;;;;;;;;;;;;;;;-1.53;100.00;100246.34;5022248;28;19927;-43
2022/12/17 21:57:47;;;;;;;;;;;;;;;-1.53;100.00;100240.41;5021201;28;20077;-43
2022/12/17 22:00:12;;;;;;;;;;;;;;;-1.69;100.00;100244.03;5021917;28;19928;-43
2022/12/17 22:02:37;;;;;;;;;;;;;;;-1.59;100.00;100246.13;5019254;28;19921;-43
2022/12/17 22:05:03;;;;;;;;;;;;;;;-2.00;100.00;100244.56;5021707;28;19965;-43
2022/12/17 22:07:28;;;;;;;;;;;;;;;-1.85;100.00;100242.59;5020180;28;19928;-43
2022/12/17 22:09:53;;;;;;;;;;;;;;;-1.67;100.00;100246.63;5021401;28;19921;-43
2022/12/17 22:15:03;;;;;;;;;;;;;;;-1.39;100.00;100254.44;5020127;28;20024;-42
2022/12/17 22:17:28;;;;;;;;;;;;;;;-1.62;100.00;100246.03;5021955;28;20630;-43
2022/12/17 22:19:53;;;;;;;;;;;;;;;-1.86;100.00;100245.94;5020004;28;20346;-43
2022/12/17 22:22:19;;;;;;;;;;;;;;;-1.76;100.00;100239.56;5021358;28;20051;-43
2022/12/17 22:24:44;;;;;;;;;;;;;;;-1.69;100.00;100244.94;5021200;28;19939;-43
2022/12/17 22:27:09;;;;;;;;;;;;;;;-1.56;100.00;100250.41;5022003;28;19921;-43
2022/12/17 22:35:02;;;;;;;;;;;;;;;-1.71;100.00;100241.47;5021069;28;19932;-43
2022/12/17 22:37:28;;;;;;;;;;;;;;;-1.90;100.00;100244.09;5021823;28;19913;-43
2022/12/17 22:39:53;;;;;;;;;;;;;;;-2.01;100.00;100230.22;5020075;28;20375;-43
2022/12/17 22:45:03;;;;;;;;;;;;;;;-2.00;100.00;100237.00;5020884;28;19979;-43
2022/12/17 22:47:28;;;;;;;;;;;;;;;-2.25;100.00;100220.91;5019547;28;20573;-43
2022/12/17 22:49:53;;;;;;;;;;;;;;;-1.76;100.00;100221.91;5020251;28;19976;-43
2022/12/17 22:52:18;;;;;;;;;;;;;;;-1.83;100.00;100225.84;5020189;28;20718;-43
2022/12/17 22:54:44;;;;;;;;;;;;;;;-1.78;100.00;100231.06;5020939;28;20431;-43
2022/12/17 22:57:09;;;;;;;;;;;;;;;-1.71;100.00;100221.28;5021646;28;19925;-43
2022/12/17 22:59:35;;;;;;;;;;;;;;;-1.82;100.00;100227.59;5021049;28;19921;-43
2022/12/17 23:02:00;;;;;;;;;;;;;;;-1.66;100.00;100228.16;5019535;28;20048;-43
2022/12/17 23:04:25;;;;;;;;;;;;;;;-1.97;100.00;100220.28;5020691;28;20008;-43
2022/12/17 23:06:50;;;;;;;;;;;;;;;-1.73;100.00;100222.03;5019719;28;20007;-43
2022/12/17 23:09:17;;;;;;;;;;;;;;;-1.82;100.00;100232.66;5020762;28;19952;-43
2022/12/17 23:11:43;;;;;;;;;;;;;;;-1.76;100.00;100232.00;5021429;28;19917;-44
2022/12/17 23:14:08;;;;;;;;;;;;;;;-1.84;100.00;100229.19;5019606;28;19921;-43
2022/12/17 23:16:34;;;;;;;;;;;;;;;-1.58;100.00;100229.28;5021464;28;19932;-43
2022/12/17 23:19:00;;;;;;;;;;;;;;;-1.85;100.00;100232.50;5018896;28;20751;-43
2022/12/17 23:21:25;;;;;;;;;;;;;;;-1.62;100.00;100227.44;5021052;28;20382;-43
2022/12/17 23:23:51;;;;;;;;;;;;;;;-1.91;100.00;100230.63;5020762;28;19917;-43
2022/12/17 23:26:17;;;;;;;;;;;;;;;-1.58;100.00;100234.34;5021504;28;20018;-43
2022/12/17 23:28:43;;;;;;;;;;;;;;;-1.79;100.00;100231.91;5024120;28;19928;-43
2022/12/17 23:31:12;;;;;;;;;;;;;;;-1.99;100.00;100228.59;5023157;28;19921;-43
2022/12/17 23:33:38;;;;;;;;;;;;;;;-1.82;100.00;100230.13;5024572;28;19927;-43
2022/12/17 23:36:07;;;;;;;;;;;;;;;-1.79;100.00;100234.41;5024167;28;19917;-43
2022/12/17 23:38:32;;;;;;;;;;;;;;;-1.98;100.00;100236.25;5023639;28;19928;-43
2022/12/17 23:41:04;;;;;;;;;;;;;;;-1.76;100.00;100237.03;5024483;28;20739;-43
2022/12/17 23:43:29;;;;;;;;;;;;;;;-1.77;100.00;100251.34;5023536;28;19924;-43
2022/12/17 23:45:54;;;;;;;;;;;;;;;-2.17;100.00;100239.69;5022265;28;19921;-43
2022/12/17 23:48:19;;;;;;;;;;;;;;;-1.71;100.00;100251.59;5023112;28;19928;-43
2022/12/17 23:50:45;;;;;;;;;;;;;;;-1.70;100.00;100250.75;5024839;28;20363;-43
2022/12/17 23:53:10;;;;;;;;;;;;;;;-1.63;100.00;100253.53;5024025;28;19944;-43
2022/12/17 23:55:35;;;;;;;;;;;;;;;-2.01;100.00;100247.88;5023001;28;19928;-43
2022/12/17 23:58:00;;;;;;;;;;;;;;;-1.67;100.00;100251.69;5023824;28;19998;-43
